createdAt,value
2022-08-03T00:00:21.302Z,81.28
2022-08-03T00:02:48.040Z,81.37
2022-08-03T00:05:14.688Z,81.15
2022-08-03T00:07:41.265Z,81.19
2022-08-03T00:10:08.586Z,81.40
2022-08-03T00:12:36.406Z,81.50
2022-08-03T00:15:03.968Z,81.61
2022-08-03T00:17:52.431Z,81.57
2022-08-03T00:20:23.545Z,81.19
2022-08-03T00:22:50.411Z,81.30
2022-08-03T00:25:17.862Z,81.29
2022-08-03T00:27:44.722Z,81.41
2022-08-03T00:30:11.469Z,81.62
2022-08-03T00:32:38.884Z,81.73
2022-08-03T00:35:20.437Z,81.61
2022-08-03T00:37:59.082Z,81.80
2022-08-03T00:40:26.145Z,81.83
2022-08-03T00:42:53.694Z,81.94
2022-08-03T00:45:25.921Z,81.91
2022-08-03T00:47:53.643Z,81.77
2022-08-03T00:50:23.004Z,81.79
2022-08-03T00:52:51.820Z,81.69
2022-08-03T00:55:18.678Z,81.79
2022-08-03T00:57:45.714Z,81.90
2022-08-03T01:00:14.651Z,81.86
2022-08-03T01:02:41.754Z,82.04
2022-08-03T01:05:09.229Z,82.12
2022-08-03T01:08:03.646Z,82.46
2022-08-03T01:10:50.294Z,82.35
2022-08-03T01:14:02.014Z,82.18
2022-08-03T01:16:11.261Z,82.12
2022-08-03T01:19:04.084Z,82.11
2022-08-03T01:21:56.366Z,81.95
2022-08-03T01:24:42.771Z,81.99
2022-08-03T01:27:15.829Z,81.88
2022-08-03T01:29:56.467Z,81.84
2022-08-03T01:32:54.551Z,81.82
2022-08-03T01:35:35.438Z,81.71
2022-08-03T01:38:10.764Z,82.04
2022-08-03T01:40:41.106Z,82.14
2022-08-03T01:43:11.158Z,82.38
2022-08-03T01:45:38.569Z,82.30
2022-08-03T01:48:07.277Z,82.36
2022-08-03T01:50:34.803Z,82.33
2022-08-03T01:53:02.322Z,82.54
2022-08-03T01:55:32.113Z,82.85
2022-08-03T01:58:05.873Z,82.76
2022-08-03T02:00:36.839Z,82.84
2022-08-03T02:03:06.756Z,82.92
2022-08-03T02:05:34.444Z,82.87
2022-08-03T02:08:03.497Z,82.72
2022-08-03T02:10:34.542Z,82.71
2022-08-03T02:13:02.999Z,82.65
2022-08-03T02:15:30.768Z,83.00
2022-08-03T02:17:58.595Z,82.99
2022-08-03T02:20:26.419Z,83.18
2022-08-03T02:22:53.176Z,83.14
2022-08-03T02:25:20.171Z,83.18
2022-08-03T02:27:56.003Z,83.49
2022-08-03T02:30:29.604Z,83.67
2022-08-03T02:32:58.488Z,83.63
2022-08-03T02:35:28.309Z,83.55
2022-08-03T02:38:00.946Z,83.59
2022-08-03T02:40:29.238Z,83.54
2022-08-03T02:42:59.460Z,83.49
2022-08-03T02:45:28.063Z,83.48
2022-08-03T02:47:58.207Z,83.50
2022-08-03T02:50:26.208Z,83.34
2022-08-03T02:52:55.318Z,83.17
2022-08-03T02:55:23.680Z,83.39
2022-08-03T02:57:51.142Z,83.73
2022-08-03T03:00:27.077Z,83.70
2022-08-03T03:02:57.875Z,83.55
2022-08-03T03:05:53.026Z,83.39
2022-08-03T03:08:17.682Z,83.31
2022-08-03T03:10:46.191Z,83.44
2022-08-03T03:13:14.820Z,83.43
2022-08-03T03:15:42.450Z,83.58
2022-08-03T03:18:10.372Z,83.48
2022-08-03T03:20:38.580Z,83.59
2022-08-03T03:23:06.162Z,83.46
2022-08-03T03:25:33.907Z,83.76
2022-08-03T03:28:01.477Z,83.83
2022-08-03T03:30:30.015Z,83.75
2022-08-03T03:32:58.668Z,83.79
2022-08-03T03:35:27.162Z,83.76
2022-08-03T03:37:53.935Z,83.82
2022-08-03T03:40:21.895Z,83.84
2022-08-03T03:42:49.373Z,83.80
2022-08-03T03:45:16.255Z,83.87
2022-08-03T03:47:42.875Z,83.93
2022-08-03T03:50:11.032Z,83.85
2022-08-03T03:52:37.947Z,83.82
2022-08-03T03:55:04.963Z,83.72
2022-08-03T03:57:31.487Z,83.69
2022-08-03T03:59:58.088Z,83.71
2022-08-03T04:02:25.005Z,83.77
2022-08-03T04:05:10.195Z,83.77
2022-08-03T04:08:05.506Z,83.76
2022-08-03T04:10:53.850Z,83.88
2022-08-03T04:13:22.005Z,83.91
2022-08-03T04:15:49.657Z,84.03
2022-08-03T04:18:18.962Z,84.05
2022-08-03T04:20:48.877Z,84.20
2022-08-03T04:23:18.550Z,84.38
2022-08-03T04:25:46.773Z,84.46
2022-08-03T04:28:30.871Z,84.52
2022-08-03T04:31:00.046Z,84.54
2022-08-03T04:33:29.724Z,84.58
2022-08-03T04:36:02.526Z,84.60
2022-08-03T04:38:32.966Z,84.49
2022-08-03T04:41:00.538Z,84.43
2022-08-03T04:43:28.321Z,84.46
2022-08-03T04:45:55.739Z,84.47
2022-08-03T04:48:22.697Z,84.15
2022-08-03T04:50:49.383Z,84.08
2022-08-03T04:53:16.765Z,83.99
2022-08-03T04:55:43.601Z,84.06
2022-08-03T04:58:10.461Z,84.08
2022-08-03T05:00:37.035Z,84.02
2022-08-03T05:03:03.722Z,84.22
2022-08-03T05:05:50.077Z,83.88
2022-08-03T05:08:20.346Z,83.49
2022-08-03T05:10:54.346Z,83.43
2022-08-03T05:13:21.022Z,83.27
2022-08-03T05:15:47.725Z,82.48
2022-08-03T05:18:14.554Z,82.11
2022-08-03T05:20:41.527Z,82.09
2022-08-03T05:23:08.197Z,81.53
2022-08-03T05:25:34.929Z,81.83
2022-08-03T05:28:01.529Z,81.80
2022-08-03T05:30:34.161Z,81.83
2022-08-03T05:33:03.076Z,81.98
2022-08-03T05:36:01.182Z,81.94
2022-08-03T05:38:20.856Z,81.89
2022-08-03T05:40:57.529Z,81.82
2022-08-03T05:43:41.263Z,81.73
2022-08-03T05:46:12.994Z,81.38
2022-08-03T05:48:40.153Z,81.10
2022-08-03T05:51:11.409Z,81.23
2022-08-03T05:53:39.238Z,81.19
2022-08-03T05:56:13.997Z,80.89
2022-08-03T05:58:43.466Z,80.07
2022-08-03T06:01:10.175Z,80.00
2022-08-03T06:03:36.754Z,79.78
2022-08-03T06:06:03.488Z,79.66
2022-08-03T06:08:30.031Z,79.93
2022-08-03T06:10:56.615Z,79.55
2022-08-03T06:13:23.202Z,79.06
2022-08-03T06:15:49.772Z,78.39
2022-08-03T06:18:16.386Z,78.42
2022-08-03T06:20:42.967Z,77.89
2022-08-03T06:23:16.140Z,77.33
2022-08-03T06:25:45.057Z,76.78
2022-08-03T06:31:03.089Z,76.02
2022-08-03T06:34:30.460Z,75.55
2022-08-03T06:36:16.324Z,74.86
2022-08-03T06:38:42.962Z,74.32
2022-08-03T06:41:09.498Z,73.84
2022-08-03T06:43:37.980Z,72.98
2022-08-03T06:46:24.693Z,72.40
2022-08-03T06:48:53.272Z,72.29
2022-08-03T06:51:19.980Z,71.95
2022-08-03T06:53:46.585Z,71.33
2022-08-03T06:56:13.196Z,71.11
2022-08-03T06:58:39.809Z,70.89
2022-08-03T07:01:06.425Z,70.11
2022-08-03T07:03:33.115Z,70.24
2022-08-03T07:05:59.976Z,69.32
2022-08-03T07:08:34.210Z,68.86
2022-08-03T07:11:01.460Z,68.21
2022-08-03T07:13:28.147Z,67.89
2022-08-03T07:15:56.384Z,67.09
2022-08-03T07:18:29.343Z,66.64
2022-08-03T07:20:56.842Z,66.95
2022-08-03T07:23:23.741Z,65.76
2022-08-03T07:25:50.998Z,64.73
2022-08-03T07:28:17.708Z,64.01
2022-08-03T07:30:44.333Z,64.07
2022-08-03T07:33:11.134Z,63.73
2022-08-03T07:35:37.829Z,63.33
2022-08-03T07:38:04.374Z,62.62
2022-08-03T07:40:31.908Z,62.65
2022-08-03T07:42:59.989Z,61.71
2022-08-03T07:45:26.768Z,60.54
2022-08-03T07:47:55.735Z,60.40
2022-08-03T07:50:22.884Z,60.14
2022-08-03T07:52:50.755Z,59.42
2022-08-03T07:55:25.522Z,58.48
2022-08-03T07:58:03.995Z,57.14
2022-08-03T08:00:31.044Z,55.86
2022-08-03T08:02:57.663Z,55.33
2022-08-03T08:05:24.513Z,55.36
2022-08-03T08:07:51.883Z,54.83
2022-08-03T08:10:18.815Z,54.33
2022-08-03T08:12:45.542Z,53.80
2022-08-03T08:15:12.190Z,53.19
2022-08-03T08:18:01.012Z,52.32
2022-08-03T08:20:31.789Z,51.86
2022-08-03T08:23:06.934Z,51.14
2022-08-03T08:25:51.817Z,50.94
2022-08-03T08:28:22.392Z,50.57
2022-08-03T08:30:59.699Z,50.35
2022-08-03T08:33:37.331Z,49.85
2022-08-03T08:36:15.389Z,49.56
2022-08-03T08:38:44.627Z,48.94
2022-08-03T08:41:12.134Z,49.24
2022-08-03T08:43:38.952Z,48.89
2022-08-03T08:46:08.042Z,47.25
2022-08-03T08:48:36.271Z,47.64
2022-08-03T08:51:03.438Z,46.69
2022-08-03T08:53:32.825Z,45.61
2022-08-03T08:56:01.193Z,45.80
2022-08-03T08:58:37.392Z,45.57
2022-08-03T09:01:05.489Z,45.25
2022-08-03T09:03:34.382Z,44.82
2022-08-03T09:06:02.286Z,44.56
2022-08-03T09:08:30.414Z,44.20
2022-08-03T09:10:57.026Z,44.00
2022-08-03T09:13:23.684Z,44.27
2022-08-03T09:16:09.106Z,44.07
2022-08-03T09:18:35.829Z,43.03
2022-08-03T09:21:34.891Z,42.07
2022-08-03T09:24:06.325Z,42.72
2022-08-03T09:26:37.108Z,42.31
2022-08-03T09:29:09.342Z,41.98
2022-08-03T09:31:45.087Z,40.39
2022-08-03T09:34:15.066Z,41.43
2022-08-03T09:36:47.586Z,41.11
2022-08-03T09:39:37.534Z,40.76
2022-08-03T09:42:19.104Z,39.85
2022-08-03T09:44:51.717Z,39.32
2022-08-03T09:47:29.687Z,39.46
2022-08-03T09:49:59.029Z,38.92
2022-08-03T09:52:48.341Z,38.96
2022-08-03T09:56:30.958Z,37.94
2022-08-03T09:58:11.020Z,38.77
2022-08-03T10:01:04.156Z,38.54
2022-08-03T10:03:36.253Z,37.65
2022-08-03T10:06:22.771Z,36.66
2022-08-03T10:09:15.701Z,36.92
2022-08-03T10:11:43.749Z,36.96
2022-08-03T10:14:18.809Z,36.59
2022-08-03T10:16:46.800Z,36.27
2022-08-03T10:19:15.202Z,35.06
2022-08-03T10:21:55.590Z,35.82
2022-08-03T10:24:26.863Z,35.66
2022-08-03T10:27:01.227Z,35.28
2022-08-03T10:29:29.042Z,34.75
2022-08-03T10:31:59.013Z,34.22
2022-08-03T10:34:35.232Z,34.61
2022-08-03T10:37:08.393Z,34.43
2022-08-03T10:39:36.192Z,33.52
2022-08-03T10:42:03.951Z,33.23
2022-08-03T10:44:40.115Z,33.28
2022-08-03T10:47:09.641Z,32.51
2022-08-03T10:49:36.612Z,32.33
2022-08-03T10:52:12.905Z,31.74
2022-08-03T10:55:07.323Z,33.02
2022-08-03T10:57:49.704Z,32.31
2022-08-03T11:00:24.602Z,32.82
2022-08-03T11:03:16.742Z,32.67
2022-08-03T11:05:49.150Z,31.26
2022-08-03T11:08:24.031Z,32.23
2022-08-03T11:10:53.654Z,31.59
2022-08-03T11:13:23.436Z,30.70
2022-08-03T11:15:53.480Z,30.25
2022-08-03T11:18:27.202Z,30.30
2022-08-03T11:20:56.496Z,30.48
2022-08-03T11:24:04.746Z,29.93
2022-08-03T11:26:34.014Z,29.86
2022-08-03T11:29:30.517Z,30.11
2022-08-03T11:31:57.747Z,30.21
2022-08-03T11:34:24.936Z,29.96
2022-08-03T11:37:21.836Z,29.47
2022-08-03T11:39:51.537Z,30.18
2022-08-03T11:42:24.340Z,30.02
2022-08-03T11:44:52.692Z,30.39
2022-08-03T11:47:21.686Z,30.53
2022-08-03T11:49:50.325Z,30.98
2022-08-03T11:52:17.764Z,31.09
2022-08-03T11:54:44.750Z,30.62
2022-08-03T11:57:11.746Z,31.50
2022-08-03T11:59:38.779Z,31.18
2022-08-03T12:02:09.280Z,30.47
2022-08-03T12:04:58.229Z,30.62
2022-08-03T12:08:04.101Z,29.81
2022-08-03T12:10:15.089Z,30.12
2022-08-03T12:12:46.282Z,30.43
2022-08-03T12:15:13.198Z,29.93
2022-08-03T12:17:41.487Z,30.43
2022-08-03T12:20:10.343Z,30.73
2022-08-03T12:22:39.452Z,29.82
2022-08-03T12:25:08.155Z,29.77
2022-08-03T12:27:35.795Z,30.45
2022-08-03T12:30:04.646Z,31.44
2022-08-03T12:32:31.619Z,31.14
2022-08-03T12:35:01.546Z,30.45
2022-08-03T12:37:29.766Z,31.11
2022-08-03T12:40:09.453Z,30.34
2022-08-03T12:42:38.691Z,30.21
2022-08-03T12:45:24.906Z,30.83
2022-08-03T12:48:00.413Z,30.36
2022-08-03T12:50:28.388Z,31.14
2022-08-03T12:52:56.007Z,31.17
2022-08-03T12:55:23.301Z,31.02
2022-08-03T12:57:49.968Z,30.79
2022-08-03T13:00:29.024Z,30.72
2022-08-03T13:03:39.363Z,30.47
2022-08-03T13:05:50.950Z,31.25
2022-08-03T13:08:19.041Z,31.86
2022-08-03T13:10:46.153Z,31.62
2022-08-03T13:13:12.733Z,31.74
2022-08-03T13:15:48.008Z,31.61
2022-08-03T13:18:17.269Z,31.84
2022-08-03T13:20:47.987Z,31.25
2022-08-03T13:23:22.304Z,30.84
2022-08-03T13:25:55.878Z,31.38
2022-08-03T13:28:23.373Z,31.23
2022-08-03T13:30:50.080Z,31.47
2022-08-03T13:33:16.732Z,32.06
2022-08-03T13:35:43.272Z,31.86
2022-08-03T13:38:10.233Z,32.24
2022-08-03T13:40:41.692Z,32.25
2022-08-03T13:43:08.636Z,32.58
2022-08-03T13:45:35.814Z,32.97
2022-08-03T13:48:02.446Z,33.07
2022-08-03T13:50:30.033Z,33.49
2022-08-03T13:52:59.491Z,32.62
2022-08-03T13:55:26.057Z,32.96
2022-08-03T13:58:04.603Z,33.34
2022-08-03T14:00:33.811Z,33.09
2022-08-03T14:03:17.360Z,33.74
2022-08-03T14:05:44.123Z,34.51
2022-08-03T14:08:13.658Z,33.78
2022-08-03T14:10:46.282Z,34.16
2022-08-03T14:13:16.782Z,33.72
2022-08-03T14:15:50.067Z,33.55
2022-08-03T14:18:28.984Z,33.29
2022-08-03T14:21:05.995Z,33.26
2022-08-03T14:23:33.636Z,33.65
2022-08-03T14:26:00.278Z,33.43
2022-08-03T14:28:27.147Z,33.56
2022-08-03T14:30:55.982Z,34.28
2022-08-03T14:33:23.676Z,34.14
2022-08-03T14:35:51.724Z,34.06
2022-08-03T14:38:18.623Z,34.27
2022-08-03T14:40:45.841Z,34.08
2022-08-03T14:43:18.158Z,34.45
2022-08-03T14:45:44.975Z,34.04
2022-08-03T14:50:34.340Z,34.00
2022-08-03T14:51:00.821Z,34.01
2022-08-03T14:53:28.933Z,34.17
2022-08-03T14:55:55.883Z,33.51
2022-08-03T14:58:25.301Z,34.35
2022-08-03T15:00:53.396Z,35.09
2022-08-03T15:03:25.313Z,35.38
2022-08-03T15:05:53.809Z,36.12
2022-08-03T15:08:21.782Z,34.62
2022-08-03T15:10:49.392Z,35.88
2022-08-03T15:13:17.191Z,35.58
2022-08-03T15:15:43.953Z,35.96
2022-08-03T15:18:10.901Z,36.51
2022-08-03T15:20:46.678Z,37.02
2022-08-03T15:23:15.388Z,36.86
2022-08-03T15:26:28.009Z,36.61
2022-08-03T15:28:42.400Z,36.67
2022-08-03T15:31:09.795Z,36.96
2022-08-03T15:33:37.267Z,37.36
2022-08-03T15:36:04.649Z,38.33
2022-08-03T15:38:31.270Z,37.49
2022-08-03T15:40:59.096Z,37.55
2022-08-03T15:43:25.794Z,38.14
2022-08-03T15:46:12.853Z,38.49
2022-08-03T15:48:40.125Z,38.78
2022-08-03T15:51:07.446Z,39.19
2022-08-03T15:53:34.483Z,39.40
2022-08-03T15:56:04.231Z,39.97
2022-08-03T15:59:04.957Z,39.47
2022-08-03T16:01:21.302Z,39.63
2022-08-03T16:03:48.287Z,40.10
2022-08-03T16:06:14.983Z,41.03
2022-08-03T16:08:41.594Z,41.09
2022-08-03T16:11:08.325Z,40.69
2022-08-03T16:14:12.448Z,40.86
2022-08-03T16:16:21.420Z,41.57
2022-08-03T16:18:47.974Z,41.61
2022-08-03T16:21:19.479Z,41.50
2022-08-03T16:23:48.645Z,41.74
2022-08-03T16:26:15.270Z,42.44
2022-08-03T16:28:42.016Z,42.54
2022-08-03T16:31:09.205Z,42.54
2022-08-03T16:33:36.207Z,42.84
2022-08-03T16:36:02.956Z,42.78
2022-08-03T16:38:30.545Z,42.95
2022-08-03T16:40:57.216Z,43.50
2022-08-03T16:43:24.688Z,43.54
2022-08-03T16:45:52.047Z,43.53
2022-08-03T16:48:19.142Z,43.50
2022-08-03T16:50:46.104Z,43.97
2022-08-03T16:53:17.091Z,44.08
2022-08-03T16:55:53.378Z,44.14
2022-08-03T16:58:34.432Z,44.38
2022-08-03T17:01:22.299Z,44.58
2022-08-03T17:04:02.477Z,44.60
2022-08-03T17:06:36.792Z,44.74
2022-08-03T17:09:19.022Z,45.02
2022-08-03T17:11:50.118Z,45.13
2022-08-03T17:14:21.799Z,45.42
2022-08-03T17:16:52.772Z,45.42
2022-08-03T17:19:23.037Z,45.53
2022-08-03T17:22:01.386Z,45.90
2022-08-03T17:24:41.320Z,45.94
2022-08-03T17:27:23.124Z,45.90
2022-08-03T17:30:07.692Z,45.87
2022-08-03T17:32:42.213Z,46.16
2022-08-03T17:35:10.883Z,46.30
2022-08-03T17:37:58.693Z,46.35
2022-08-03T17:40:24.737Z,46.56
2022-08-03T17:42:52.530Z,46.70
2022-08-03T17:45:20.357Z,46.83
2022-08-03T17:47:57.758Z,46.97
2022-08-03T17:50:40.236Z,47.27
2022-08-03T17:53:15.199Z,47.16
2022-08-03T17:56:42.371Z,47.36
2022-08-03T17:59:52.437Z,46.97
2022-08-03T18:03:01.149Z,47.38
2022-08-03T18:06:12.540Z,47.51
2022-08-03T18:08:27.550Z,47.87
2022-08-03T18:11:14.899Z,48.28
2022-08-03T18:13:58.180Z,48.65
2022-08-03T18:16:33.445Z,49.07
2022-08-03T18:19:09.293Z,49.05
2022-08-03T18:22:04.059Z,49.52
2022-08-03T18:24:28.261Z,49.84
2022-08-03T18:27:03.220Z,49.94
2022-08-03T18:29:30.884Z,49.67
2022-08-03T18:32:03.881Z,50.11
2022-08-03T18:34:34.532Z,50.21
2022-08-03T18:37:04.286Z,50.21
2022-08-03T18:39:49.589Z,50.36
2022-08-03T18:42:19.363Z,50.27
2022-08-03T18:44:53.997Z,50.20
2022-08-03T18:47:50.841Z,49.95
2022-08-03T18:50:28.467Z,50.59
2022-08-03T18:53:16.442Z,50.84
2022-08-03T18:56:02.391Z,51.48
2022-08-03T18:58:48.474Z,51.56
2022-08-03T19:02:01.069Z,51.85
2022-08-03T19:04:31.063Z,52.25
2022-08-03T19:07:04.093Z,52.85
2022-08-03T19:09:40.539Z,53.39
2022-08-03T19:12:32.364Z,54.09
2022-08-03T19:15:12.922Z,54.42
2022-08-03T19:17:53.218Z,54.99
2022-08-03T19:20:34.832Z,55.48
2022-08-03T19:23:01.899Z,55.64
2022-08-03T19:25:34.876Z,55.72
2022-08-03T19:28:06.170Z,55.98
2022-08-03T19:30:46.427Z,56.36
2022-08-03T19:33:20.945Z,56.07
2022-08-03T19:38:37.409Z,55.90
2022-08-03T19:41:09.911Z,56.10
2022-08-03T19:43:52.480Z,56.66
2022-08-03T19:46:22.245Z,56.44
2022-08-03T19:49:15.253Z,56.83
2022-08-03T19:51:58.495Z,57.10
2022-08-03T19:57:28.740Z,57.29
2022-08-03T19:59:57.169Z,57.40
2022-08-03T20:02:26.526Z,57.87
2022-08-03T20:04:59.970Z,58.38
2022-08-03T20:07:29.135Z,58.40
2022-08-03T20:09:57.320Z,58.42
2022-08-03T20:12:28.998Z,58.61
2022-08-03T20:14:57.757Z,58.78
2022-08-03T20:17:54.297Z,58.97
2022-08-03T20:20:12.116Z,59.24
2022-08-03T20:22:46.076Z,59.44
2022-08-03T20:25:16.362Z,59.43
2022-08-03T20:28:07.185Z,59.58
2022-08-03T20:30:42.505Z,59.73
2022-08-03T20:33:09.960Z,59.95
2022-08-03T20:35:36.750Z,59.98
2022-08-03T20:38:03.959Z,60.25
2022-08-03T20:40:31.563Z,60.37
2022-08-03T20:42:59.795Z,60.39
2022-08-03T20:45:58.332Z,60.56
2022-08-03T20:48:17.582Z,60.38
2022-08-03T20:50:49.069Z,60.65
2022-08-03T20:53:19.933Z,60.82
2022-08-03T20:56:04.279Z,60.96
2022-08-03T20:58:31.108Z,61.16
2022-08-03T21:00:58.255Z,61.15
2022-08-03T21:03:24.936Z,61.48
2022-08-03T21:06:11.748Z,61.30
2022-08-03T21:08:46.768Z,61.19
2022-08-03T21:11:18.266Z,61.47
2022-08-03T21:13:02.506Z,55.93
2022-08-03T21:13:10.224Z,57.20
2022-08-03T21:14:06.094Z,61.59
2022-08-03T21:16:33.902Z,61.42
2022-08-03T21:19:03.577Z,61.78
2022-08-03T21:21:32.319Z,61.92
2022-08-03T21:24:00.355Z,61.81
2022-08-03T21:26:27.510Z,61.80
2022-08-03T21:28:56.012Z,61.67
2022-08-03T21:31:25.472Z,61.73
2022-08-03T21:33:57.630Z,61.58
2022-08-03T21:36:27.627Z,61.62
2022-08-03T21:38:56.845Z,61.66
2022-08-03T21:41:25.997Z,61.84
2022-08-03T21:43:52.574Z,61.95
2022-08-03T21:46:20.076Z,62.00
2022-08-03T21:48:53.208Z,62.14
2022-08-03T21:51:24.500Z,62.22
2022-08-03T21:54:02.806Z,62.43
2022-08-03T21:56:36.332Z,62.48
2022-08-03T21:59:07.803Z,62.62
2022-08-03T22:01:36.737Z,62.57
2022-08-03T22:04:06.975Z,62.50
2022-08-03T22:06:33.875Z,62.38
2022-08-03T22:09:01.171Z,62.18
2022-08-03T22:11:27.941Z,62.07
2022-08-03T22:13:54.585Z,62.19
2022-08-03T22:16:21.618Z,62.48
2022-08-03T22:18:48.155Z,62.84
2022-08-03T22:21:16.802Z,63.04
2022-08-03T22:23:58.038Z,63.22
2022-08-03T22:26:34.621Z,63.23
2022-08-03T22:29:07.320Z,63.38
2022-08-03T22:31:58.873Z,63.54
2022-08-03T22:34:26.297Z,64.03
2022-08-03T22:36:56.556Z,64.13
2022-08-03T22:39:28.747Z,64.20
2022-08-03T22:41:58.030Z,64.01
2022-08-03T22:44:26.320Z,63.80
2022-08-03T22:46:53.301Z,63.73
2022-08-03T22:49:20.714Z,63.71
2022-08-03T22:51:47.544Z,63.57
2022-08-03T22:54:14.837Z,63.52
2022-08-03T22:56:42.037Z,63.33
2022-08-03T22:59:41.408Z,63.21
2022-08-03T23:02:20.517Z,63.46
2022-08-03T23:04:52.091Z,64.34
2022-08-03T23:07:32.719Z,64.68
2022-08-03T23:10:01.007Z,65.17
2022-08-03T23:12:30.364Z,65.15
2022-08-03T23:15:02.214Z,65.56
2022-08-03T23:17:31.518Z,65.73
2022-08-03T23:20:07.579Z,65.69
2022-08-03T23:22:38.316Z,65.99
2022-08-03T23:25:10.352Z,66.27
2022-08-03T23:27:41.209Z,66.23
2022-08-03T23:30:08.747Z,66.48
2022-08-03T23:32:35.775Z,66.41
2022-08-03T23:35:24.635Z,66.56
2022-08-03T23:38:22.716Z,66.44
2022-08-03T23:40:51.306Z,66.45
2022-08-03T23:43:44.818Z,66.28
2022-08-03T23:46:07.441Z,66.29
2022-08-03T23:48:34.556Z,66.51
2022-08-03T23:51:09.753Z,66.55
2022-08-03T23:53:51.411Z,66.75
2022-08-03T23:56:45.561Z,66.97
2022-08-03T23:59:39.490Z,67.06
